createdAt,value
2023-05-06T00:01:43.113Z,100574.16
2023-05-06T00:04:44.651Z,100567.03
2023-05-06T00:07:46.336Z,100569.75
2023-05-06T00:10:47.926Z,100570.72
2023-05-06T00:13:49.445Z,100569.88
2023-05-06T00:16:51.018Z,100562.75
2023-05-06T00:19:52.566Z,100564.44
2023-05-06T00:22:54.241Z,100559.16
2023-05-06T00:25:55.777Z,100559.16
2023-05-06T00:28:57.269Z,100568.00
2023-05-06T00:31:58.828Z,100573.78
2023-05-06T00:35:00.299Z,100571.91
2023-05-06T00:38:09.098Z,100567.31
2023-05-06T00:41:10.622Z,100568.50
2023-05-06T00:44:12.109Z,100580.25
2023-05-06T00:47:13.941Z,100573.94
2023-05-06T00:50:15.486Z,100579.38
2023-05-06T00:53:19.799Z,100574.81
2023-05-06T00:56:21.391Z,100580.41
2023-05-06T00:59:23.258Z,100578.53
2023-05-06T01:02:33.276Z,100572.25
2023-05-06T01:06:04.209Z,100573.78
2023-05-06T01:09:29.718Z,100581.78
2023-05-06T01:12:37.597Z,100566.66
2023-05-06T01:15:46.874Z,100575.31
2023-05-06T01:18:50.714Z,100579.91
2023-05-06T01:21:54.720Z,100581.59
2023-05-06T01:24:56.192Z,100579.06
2023-05-06T01:27:57.668Z,100578.19
2023-05-06T01:31:09.232Z,100570.72
2023-05-06T01:34:41.980Z,100577.03
2023-05-06T01:37:59.578Z,100577.91
2023-05-06T01:41:02.031Z,100587.03
2023-05-06T01:44:06.903Z,100589.63
2023-05-06T01:47:11.813Z,100582.47
2023-05-06T01:50:14.165Z,100589.75
2023-05-06T01:53:15.752Z,100594.38
2023-05-06T01:56:17.677Z,100594.38
2023-05-06T01:59:19.165Z,100595.19
2023-05-06T02:02:20.718Z,100584.34
2023-05-06T02:05:22.303Z,100587.91
2023-05-06T02:08:28.251Z,100594.22
2023-05-06T02:11:29.832Z,100590.63
2023-05-06T02:14:37.285Z,100580.75
2023-05-06T02:17:39.236Z,100578.03
2023-05-06T02:20:40.701Z,100582.63
2023-05-06T02:23:48.419Z,100583.47
2023-05-06T02:26:49.920Z,100583.47
2023-05-06T02:29:51.429Z,100578.03
2023-05-06T02:32:53.014Z,100573.44
2023-05-06T02:35:54.564Z,100572.59
2023-05-06T02:38:56.102Z,100562.56
2023-05-06T02:41:57.658Z,100571.56
2023-05-06T02:44:59.222Z,100568.84
2023-05-06T02:48:00.720Z,100572.59
2023-05-06T02:51:02.363Z,100568.00
2023-05-06T02:54:03.954Z,100566.31
2023-05-06T02:57:05.475Z,100573.44
2023-05-06T03:00:07.702Z,100568.00
2023-05-06T03:03:09.825Z,100566.31
2023-05-06T03:06:11.477Z,100569.88
2023-05-06T03:09:13.109Z,100570.72
2023-05-06T03:12:14.782Z,100567.16
2023-05-06T03:15:16.426Z,100566.31
2023-05-06T03:18:17.967Z,100562.56
2023-05-06T03:21:19.958Z,100564.44
2023-05-06T03:24:23.790Z,100563.59
2023-05-06T03:27:25.492Z,100552.72
2023-05-06T03:30:30.744Z,100557.31
2023-05-06T03:33:35.324Z,100563.59
2023-05-06T03:36:36.857Z,100563.75
2023-05-06T03:39:38.406Z,100568.19
2023-05-06T03:42:40.209Z,100569.03
2023-05-06T03:45:42.122Z,100576.34
2023-05-06T03:48:43.732Z,100585.50
2023-05-06T03:51:48.703Z,100577.34
2023-05-06T03:54:51.932Z,100583.63
2023-05-06T03:57:53.708Z,100583.63
2023-05-06T04:00:56.356Z,100584.66
2023-05-06T04:03:58.018Z,100581.09
2023-05-06T04:07:01.931Z,100581.09
2023-05-06T04:10:03.631Z,100591.97
2023-05-06T04:13:06.250Z,100595.69
2023-05-06T04:16:13.953Z,100602.00
2023-05-06T04:19:18.638Z,100612.00
2023-05-06T04:22:21.408Z,100609.28
2023-05-06T04:25:23.711Z,100613.03
2023-05-06T04:28:25.566Z,100610.31
2023-05-06T04:31:29.181Z,100622.03
2023-05-06T04:34:36.096Z,100614.91
2023-05-06T04:37:39.241Z,100625.59
2023-05-06T04:40:45.290Z,100630.19
2023-05-06T04:43:47.072Z,100623.06
2023-05-06T04:46:54.240Z,100623.06
2023-05-06T04:49:55.967Z,100629.50
2023-05-06T04:52:58.724Z,100638.53
2023-05-06T04:56:00.816Z,100631.22
2023-05-06T04:59:02.589Z,100628.66
2023-05-06T05:02:04.266Z,100628.50
2023-05-06T05:05:07.052Z,100627.66
2023-05-06T05:08:10.034Z,100622.03
2023-05-06T05:11:12.079Z,100623.06
2023-05-06T05:14:13.944Z,100633.09
2023-05-06T05:17:15.532Z,100635.81
2023-05-06T05:20:18.063Z,100637.66
2023-05-06T05:23:19.645Z,100643.97
2023-05-06T05:26:21.195Z,100650.25
2023-05-06T05:29:25.533Z,100653.97
2023-05-06T05:32:27.990Z,100650.25
2023-05-06T05:35:29.463Z,100658.41
2023-05-06T05:38:31.432Z,100657.38
2023-05-06T05:41:33.998Z,100668.25
2023-05-06T05:44:35.513Z,100660.09
2023-05-06T05:47:38.620Z,100652.78
2023-05-06T05:50:40.887Z,100658.22
2023-05-06T05:53:44.279Z,100650.94
2023-05-06T05:56:46.533Z,100652.63
2023-05-06T05:59:48.911Z,100648.22
2023-05-06T06:02:50.479Z,100647.19
2023-05-06T06:05:55.308Z,100650.94
2023-05-06T06:08:58.979Z,100665.38
2023-05-06T06:12:02.056Z,100662.66
2023-05-06T06:15:05.238Z,100663.66
2023-05-06T06:18:08.805Z,100660.94
2023-05-06T06:21:11.470Z,100652.97
2023-05-06T06:24:14.198Z,100651.25
2023-05-06T06:27:15.705Z,100654.84
2023-05-06T06:30:17.359Z,100660.28
2023-05-06T06:33:18.928Z,100672.00
2023-05-06T06:36:21.156Z,100678.44
2023-05-06T06:39:22.714Z,100673.00
2023-05-06T06:42:24.254Z,100678.28
2023-05-06T06:45:40.251Z,100684.75
2023-05-06T06:48:41.754Z,100688.13
2023-05-06T06:51:43.245Z,100692.72
2023-05-06T06:54:44.785Z,100681.69
2023-05-06T06:57:46.235Z,100689.69
2023-05-06T07:00:47.840Z,100694.13
2023-05-06T07:03:49.399Z,100696.66
2023-05-06T07:06:51.171Z,100694.63
2023-05-06T07:09:52.651Z,100696.50
2023-05-06T07:12:54.319Z,100703.63
2023-05-06T07:15:55.967Z,100697.34
2023-05-06T07:18:57.472Z,100705.34
2023-05-06T07:21:59.280Z,100699.22
2023-05-06T07:25:00.742Z,100700.91
2023-05-06T07:28:02.286Z,100699.22
2023-05-06T07:31:03.848Z,100712.81
2023-05-06T07:34:05.531Z,100714.50
2023-05-06T07:37:08.174Z,100718.25
2023-05-06T07:40:10.065Z,100723.53
2023-05-06T07:43:11.916Z,100729.00
2023-05-06T07:46:13.474Z,100729.00
2023-05-06T07:49:14.964Z,100729.00
2023-05-06T07:52:16.545Z,100735.41
2023-05-06T07:55:18.049Z,100733.41
2023-05-06T07:58:19.553Z,100734.44
2023-05-06T08:01:21.099Z,100737.16
2023-05-06T08:04:23.289Z,100737.16
2023-05-06T08:07:24.847Z,100750.56
2023-05-06T08:10:26.501Z,100745.13
2023-05-06T08:13:28.715Z,100747.00
2023-05-06T08:16:30.257Z,100755.16
2023-05-06T08:19:31.849Z,100760.59
2023-05-06T08:22:33.577Z,100755.16
2023-05-06T08:25:35.138Z,100756.84
2023-05-06T08:28:36.760Z,100757.88
2023-05-06T08:31:38.324Z,100756.84
2023-05-06T08:34:40.010Z,100765.00
2023-05-06T08:37:41.884Z,100758.72
2023-05-06T08:40:44.901Z,100757.88
2023-05-06T08:43:49.318Z,100761.28
2023-05-06T08:46:51.267Z,100763.16
2023-05-06T08:49:52.825Z,100771.31
2023-05-06T08:52:55.473Z,100767.72
2023-05-06T08:56:03.979Z,100766.72
2023-05-06T08:59:09.040Z,100777.75
2023-05-06T09:02:11.530Z,100775.13
2023-05-06T09:05:13.263Z,100771.38
2023-05-06T09:08:15.841Z,100774.41
2023-05-06T09:11:25.971Z,100777.44
2023-05-06T09:14:27.540Z,100775.38
2023-05-06T09:17:31.864Z,100776.69
2023-05-06T09:20:34.911Z,100782.44
2023-05-06T09:23:38.232Z,100776.50
2023-05-06T09:26:42.819Z,100772.03
2023-05-06T09:30:00.852Z,100781.38
2023-05-06T09:33:06.267Z,100781.00
2023-05-06T09:36:08.183Z,100784.03
2023-05-06T09:39:10.089Z,100783.63
2023-05-06T09:42:11.822Z,100786.66
2023-05-06T09:45:15.837Z,100793.78
2023-05-06T09:48:17.309Z,100786.66
2023-05-06T09:51:19.535Z,100794.50
2023-05-06T09:54:21.527Z,100790.06
2023-05-06T09:57:24.038Z,100793.63
2023-05-06T10:00:28.940Z,100792.94
2023-05-06T10:03:31.938Z,100787.13
2023-05-06T10:06:36.714Z,100782.38
2023-05-06T10:09:41.913Z,100776.78
2023-05-06T10:12:44.101Z,100780.19
2023-05-06T10:15:49.941Z,100780.19
2023-05-06T10:18:54.927Z,100775.78
2023-05-06T10:22:11.944Z,100777.66
2023-05-06T10:25:26.730Z,100774.06
2023-05-06T10:28:30.989Z,100774.94
2023-05-06T10:31:34.497Z,100768.81
2023-05-06T10:34:41.353Z,100775.09
2023-05-06T10:37:45.381Z,100764.22
2023-05-06T10:40:48.186Z,100766.94
2023-05-06T10:43:56.486Z,100769.50
2023-05-06T10:47:00.719Z,100767.31
2023-05-06T10:50:21.369Z,100771.59
2023-05-06T10:53:55.022Z,100768.88
2023-05-06T10:56:58.151Z,100769.72
2023-05-06T10:59:59.733Z,100771.28
2023-05-06T11:03:12.194Z,100777.44
2023-05-06T11:06:32.831Z,100773.41
2023-05-06T11:09:54.682Z,100765.63
2023-05-06T11:12:56.678Z,100773.06
2023-05-06T11:16:02.451Z,100775.47
2023-05-06T11:19:04.508Z,100776.31
2023-05-06T11:22:08.459Z,100782.44
2023-05-06T11:25:09.936Z,100778.72
2023-05-06T11:28:12.996Z,100769.00
2023-05-06T11:31:15.279Z,100769.19
2023-05-06T11:34:21.775Z,100771.56
2023-05-06T11:37:27.636Z,100775.47
2023-05-06T11:40:29.968Z,100762.91
2023-05-06T11:43:31.466Z,100758.31
2023-05-06T11:46:33.877Z,100770.56
2023-05-06T11:49:43.027Z,100754.25
2023-05-06T11:52:44.603Z,100758.84
2023-05-06T11:55:47.142Z,100755.13
2023-05-06T11:58:48.642Z,100759.69
2023-05-06T12:01:50.305Z,100762.25
2023-05-06T12:04:52.639Z,100760.38
2023-05-06T12:07:54.522Z,100761.94
2023-05-06T12:10:59.733Z,100765.50
2023-05-06T12:14:04.482Z,100756.34
2023-05-06T12:17:06.533Z,100768.22
2023-05-06T12:20:11.055Z,100768.91
2023-05-06T12:23:16.691Z,100769.94
2023-05-06T12:26:19.519Z,100760.94
2023-05-06T12:29:21.037Z,100768.91
2023-05-06T12:32:22.635Z,100776.91
2023-05-06T12:35:31.567Z,100771.31
2023-05-06T12:38:33.108Z,100774.19
2023-05-06T12:41:37.118Z,100774.03
2023-05-06T12:44:40.307Z,100776.75
2023-05-06T12:47:52.538Z,100778.28
2023-05-06T12:50:54.097Z,100776.44
2023-05-06T12:53:55.638Z,100775.41
2023-05-06T12:56:57.352Z,100771.84
2023-05-06T12:59:58.858Z,100774.56
2023-05-06T13:03:00.461Z,100769.97
2023-05-06T13:06:01.997Z,100771.69
2023-05-06T13:09:04.757Z,100778.00
2023-05-06T13:12:07.153Z,100766.25
2023-05-06T13:15:09.298Z,100770.69
2023-05-06T13:18:10.953Z,100765.94
2023-05-06T13:21:13.960Z,100777.66
2023-05-06T13:24:16.765Z,100776.63
2023-05-06T13:27:18.321Z,100773.06
2023-05-06T13:30:19.787Z,100769.50
2023-05-06T13:33:21.367Z,100776.81
2023-05-06T13:36:23.978Z,100781.75
2023-05-06T13:39:25.776Z,100771.75
2023-05-06T13:42:27.221Z,100759.00
2023-05-06T13:45:28.700Z,100760.88
2023-05-06T13:48:30.535Z,100764.25
2023-05-06T13:51:33.431Z,100756.97
2023-05-06T13:54:34.918Z,100759.53
2023-05-06T13:57:36.411Z,100758.34
2023-05-06T14:00:39.060Z,100764.34
2023-05-06T14:03:40.569Z,100759.56
2023-05-06T14:06:42.714Z,100758.38
2023-05-06T14:09:44.173Z,100752.66
2023-05-06T14:12:46.197Z,100744.31
2023-05-06T14:15:47.736Z,100738.72
2023-05-06T14:18:49.334Z,100739.22
2023-05-06T14:21:51.722Z,100740.97
2023-05-06T14:24:53.196Z,100736.19
2023-05-06T14:27:55.088Z,100726.84
2023-05-06T14:30:56.785Z,100726.84
2023-05-06T14:33:58.311Z,100726.69
2023-05-06T14:36:59.817Z,100715.66
2023-05-06T14:40:01.316Z,100712.94
2023-05-06T14:43:03.204Z,100716.31
2023-05-06T14:46:04.925Z,100714.28
2023-05-06T14:49:06.473Z,100712.41
2023-05-06T14:52:07.918Z,100711.41
2023-05-06T14:55:10.625Z,100717.56
2023-05-06T14:58:12.268Z,100713.97
2023-05-06T15:01:13.865Z,100710.25
2023-05-06T15:04:15.401Z,100707.19
2023-05-06T15:07:16.896Z,100699.88
2023-05-06T15:10:18.418Z,100702.44
2023-05-06T15:13:19.915Z,100699.53
2023-05-06T15:16:21.608Z,100696.81
2023-05-06T15:19:23.734Z,100697.69
2023-05-06T15:22:25.191Z,100696.66
2023-05-06T15:25:35.150Z,100694.78
2023-05-06T15:28:37.422Z,100697.50
2023-05-06T15:31:40.713Z,100700.06
2023-05-06T15:34:42.258Z,100694.63
2023-05-06T15:37:43.723Z,100696.50
2023-05-06T15:40:52.344Z,100692.59
2023-05-06T15:43:56.066Z,100693.59
2023-05-06T15:46:57.545Z,100697.16
2023-05-06T15:53:02.132Z,100698.72
2023-05-06T15:59:09.097Z,100695.00
2023-05-06T16:05:15.148Z,100696.56
2023-05-06T16:08:17.014Z,100700.81
2023-05-06T16:11:18.546Z,100694.19
2023-05-06T16:14:20.432Z,100694.00
2023-05-06T16:17:21.884Z,100693.84
2023-05-06T16:20:23.431Z,100695.53
2023-05-06T16:23:25.061Z,100693.50
2023-05-06T16:26:27.064Z,100694.34
2023-05-06T16:29:28.603Z,100699.63
2023-05-06T16:32:30.164Z,100695.88
2023-05-06T16:35:32.563Z,100693.84
2023-05-06T16:38:34.140Z,100703.75
2023-05-06T16:41:35.614Z,100704.41
2023-05-06T16:44:37.123Z,100703.41
2023-05-06T16:47:38.767Z,100700.50
2023-05-06T16:50:41.205Z,100709.34
2023-05-06T16:53:42.810Z,100707.47
2023-05-06T16:56:52.153Z,100700.19
2023-05-06T16:59:54.376Z,100705.28
2023-05-06T17:02:56.168Z,100691.47
2023-05-06T17:05:57.758Z,100695.75
2023-05-06T17:08:59.373Z,100694.75
2023-05-06T17:12:00.953Z,100698.16
2023-05-06T17:15:03.890Z,100695.09
2023-05-06T17:18:05.565Z,100694.91
2023-05-06T17:21:08.771Z,100699.34
2023-05-06T17:24:10.570Z,100694.06
2023-05-06T17:27:12.144Z,100701.38
2023-05-06T17:30:14.976Z,100699.50
2023-05-06T17:33:16.737Z,100705.97
2023-05-06T17:36:20.505Z,100704.09
2023-05-06T17:39:21.964Z,100713.44
2023-05-06T17:42:23.529Z,100716.19
2023-05-06T17:45:26.664Z,100710.88
2023-05-06T17:48:28.245Z,100710.22
2023-05-06T17:51:29.862Z,100720.25
2023-05-06T17:54:36.199Z,100725.03
2023-05-06T17:57:37.635Z,100727.91
2023-05-06T18:00:39.365Z,100729.94
2023-05-06T18:03:40.990Z,100728.25
2023-05-06T18:06:42.853Z,100729.25
2023-05-06T18:09:51.605Z,100741.16
2023-05-06T18:12:54.717Z,100740.31
2023-05-06T18:15:56.295Z,100747.66
2023-05-06T18:18:58.027Z,100753.09
2023-05-06T18:22:00.478Z,100766.69
2023-05-06T18:25:04.290Z,100766.69
2023-05-06T18:28:05.910Z,100781.31
2023-05-06T18:31:07.617Z,100784.88
2023-05-06T18:34:09.237Z,100795.78
2023-05-06T18:37:10.912Z,100789.66
2023-05-06T18:40:15.751Z,100800.38
2023-05-06T18:43:17.327Z,100801.41
2023-05-06T18:46:18.911Z,100801.41
2023-05-06T18:49:20.643Z,100812.28
2023-05-06T18:52:22.230Z,100818.56
2023-05-06T18:55:23.752Z,100829.31
2023-05-06T18:58:25.347Z,100823.00
2023-05-06T19:01:26.940Z,100824.72
2023-05-06T19:04:28.684Z,100827.25
2023-05-06T19:07:30.392Z,100830.84
2023-05-06T19:10:33.897Z,100830.66
2023-05-06T19:13:35.720Z,100841.56
2023-05-06T19:16:37.330Z,100837.84
2023-05-06T19:19:38.929Z,100845.81
2023-05-06T19:22:41.101Z,100850.28
2023-05-06T19:25:42.565Z,100854.84
2023-05-06T19:28:44.096Z,100851.13
2023-05-06T19:31:45.652Z,100851.97
2023-05-06T19:34:47.135Z,100856.38
2023-05-06T19:37:48.818Z,100859.97
2023-05-06T19:40:50.328Z,100859.78
2023-05-06T19:43:51.873Z,100864.25
2023-05-06T19:46:54.421Z,100866.97
2023-05-06T19:49:56.002Z,100869.50
2023-05-06T19:52:57.549Z,100867.63
2023-05-06T19:56:08.277Z,100865.59
2023-05-06T19:59:09.907Z,100877.53
2023-05-06T20:02:13.413Z,100872.06
2023-05-06T20:05:14.929Z,100873.78
2023-05-06T20:08:16.458Z,100876.34
2023-05-06T20:11:17.956Z,100868.19
2023-05-06T20:14:19.448Z,100869.88
2023-05-06T20:17:23.131Z,100869.72
2023-05-06T20:20:31.206Z,100872.44
2023-05-06T20:23:32.740Z,100872.44
2023-05-06T20:26:34.179Z,100874.13
2023-05-06T20:29:36.152Z,100878.59
2023-05-06T20:32:39.586Z,100876.69
2023-05-06T20:35:41.424Z,100881.31
2023-05-06T20:38:42.918Z,100881.31
2023-05-06T20:41:44.406Z,100884.88
2023-05-06T20:44:46.170Z,100879.44
2023-05-06T20:47:47.812Z,100885.56
2023-05-06T20:50:49.406Z,100881.81
2023-05-06T20:53:51.995Z,100876.38
2023-05-06T20:56:53.488Z,100883.34
2023-05-06T20:59:56.076Z,100880.78
2023-05-06T21:02:57.770Z,100882.50
2023-05-06T21:05:59.287Z,100883.34
2023-05-06T21:09:00.776Z,100880.47
2023-05-06T21:12:02.377Z,100883.19
2023-05-06T21:15:04.292Z,100883.88
2023-05-06T21:18:06.188Z,100892.91
2023-05-06T21:21:07.961Z,100883.88
2023-05-06T21:24:09.568Z,100887.28
2023-05-06T21:27:11.082Z,100886.44
2023-05-06T21:30:13.090Z,100889.00
2023-05-06T21:33:14.700Z,100887.97
2023-05-06T21:36:16.224Z,100890.69
2023-05-06T21:39:17.742Z,100882.53
2023-05-06T21:42:19.300Z,100887.13
2023-05-06T21:45:21.155Z,100884.41
2023-05-06T21:48:22.779Z,100887.97
2023-05-06T21:51:27.615Z,100887.81
2023-05-06T21:54:31.400Z,100879.81
2023-05-06T21:57:33.049Z,100887.81
2023-05-06T22:00:34.589Z,100886.09
2023-05-06T22:03:36.292Z,100886.94
2023-05-06T22:06:38.117Z,100883.38
2023-05-06T22:09:39.564Z,100886.09
2023-05-06T22:12:41.121Z,100891.41
2023-05-06T22:15:43.268Z,100888.66
2023-05-06T22:18:44.858Z,100883.22
2023-05-06T22:21:46.733Z,100886.78
2023-05-06T22:24:48.567Z,100888.47
2023-05-06T22:27:50.169Z,100897.69
2023-05-06T22:30:51.638Z,100902.09
2023-05-06T22:33:57.549Z,100893.94
2023-05-06T22:37:00.501Z,100890.34
2023-05-06T22:40:02.593Z,100893.09
2023-05-06T22:43:04.138Z,100896.84
2023-05-06T22:46:05.661Z,100896.84
2023-05-06T22:49:07.660Z,100892.25
2023-05-06T22:52:09.172Z,100893.09
2023-05-06T22:55:11.053Z,100900.25
2023-05-06T22:58:13.051Z,100899.38
2023-05-06T23:01:14.599Z,100897.69
2023-05-06T23:04:16.269Z,100903.13
2023-05-06T23:07:17.844Z,100895.81
2023-05-06T23:10:19.726Z,100895.81
2023-05-06T23:13:21.506Z,100899.56
2023-05-06T23:16:23.499Z,100898.72
2023-05-06T23:19:25.087Z,100899.56
2023-05-06T23:22:26.710Z,100905.84
2023-05-06T23:25:28.283Z,100905.00
2023-05-06T23:28:30.095Z,100901.44
2023-05-06T23:31:31.703Z,100906.88
2023-05-06T23:34:33.324Z,100898.72
2023-05-06T23:37:34.877Z,100900.56
2023-05-06T23:40:36.433Z,100901.59
2023-05-06T23:43:37.905Z,100902.44
2023-05-06T23:46:39.506Z,100904.47
2023-05-06T23:49:41.133Z,100902.63
2023-05-06T23:52:42.636Z,100904.47
2023-05-06T23:55:44.276Z,100913.66
2023-05-06T23:58:45.773Z,100912.66
